createdAt,value
2022-10-17T00:01:54.169Z,11.90
2022-10-17T00:06:54.021Z,11.10
2022-10-17T00:11:53.956Z,12.50
2022-10-17T00:16:53.889Z,12.30
2022-10-17T00:21:53.831Z,12.10
2022-10-17T00:26:53.736Z,11.10
2022-10-17T00:36:53.613Z,11.30
2022-10-17T00:41:53.563Z,13.80
2022-10-17T00:46:53.472Z,10.70
2022-10-17T00:51:53.400Z,12.00
2022-10-17T00:56:53.328Z,12.10
2022-10-17T01:01:53.246Z,17.50
2022-10-17T01:06:53.177Z,16.20
2022-10-17T01:11:53.139Z,13.80
2022-10-17T01:16:53.060Z,12.60
2022-10-17T01:21:53.035Z,14.50
2022-10-17T01:26:52.928Z,16.20
2022-10-17T01:31:52.925Z,15.80
2022-10-17T01:36:52.801Z,18.30
2022-10-17T01:41:52.735Z,18.20
2022-10-17T01:46:52.706Z,17.60
2022-10-17T01:51:52.586Z,29.20
2022-10-17T01:56:52.556Z,21.00
2022-10-17T02:01:52.540Z,30.20
2022-10-17T02:06:52.406Z,27.40
2022-10-17T02:11:52.344Z,19.80
2022-10-17T02:16:52.275Z,20.80
2022-10-17T02:21:52.224Z,33.20
2022-10-17T02:26:52.153Z,46.30
2022-10-17T02:31:52.084Z,25.60
2022-10-17T02:36:52.048Z,29.40
2022-10-17T02:41:51.936Z,36.80
2022-10-17T02:46:51.913Z,45.00
2022-10-17T02:51:51.818Z,57.40
2022-10-17T02:56:51.756Z,52.80
2022-10-17T03:01:51.685Z,52.60
2022-10-17T03:06:51.627Z,39.60
2022-10-17T03:11:51.554Z,44.10
2022-10-17T03:16:51.510Z,60.10
2022-10-17T03:21:51.448Z,58.90
2022-10-17T03:26:51.416Z,65.80
2022-10-17T03:31:51.300Z,67.00
2022-10-17T03:36:51.248Z,62.20
2022-10-17T03:41:51.155Z,61.30
2022-10-17T03:46:51.112Z,62.10
2022-10-17T03:51:51.030Z,59.20
2022-10-17T03:56:50.996Z,60.30
2022-10-17T04:01:50.988Z,62.20
2022-10-17T04:06:50.864Z,68.30
2022-10-17T04:11:50.771Z,68.00
2022-10-17T04:16:50.681Z,63.60
2022-10-17T04:21:50.601Z,77.80
2022-10-17T04:26:50.558Z,76.80
2022-10-17T04:31:50.471Z,75.60
2022-10-17T04:36:50.391Z,82.00
2022-10-17T04:41:50.336Z,77.70
2022-10-17T04:46:50.269Z,72.60
2022-10-17T04:51:50.240Z,80.40
2022-10-17T04:56:50.181Z,77.80
2022-10-17T05:01:50.082Z,75.10
2022-10-17T05:06:50.013Z,68.20
2022-10-17T05:11:49.953Z,68.80
2022-10-17T05:16:49.873Z,77.40
2022-10-17T05:21:49.853Z,82.20
2022-10-17T05:26:49.739Z,81.60
2022-10-17T05:31:49.684Z,78.80
2022-10-17T05:36:49.604Z,75.40
2022-10-17T05:41:49.551Z,68.10
2022-10-17T05:46:49.463Z,72.40
2022-10-17T05:51:49.402Z,74.60
2022-10-17T05:56:49.400Z,62.40
2022-10-17T06:01:49.292Z,64.90
2022-10-17T06:06:49.205Z,58.40
2022-10-17T06:11:49.156Z,57.90
2022-10-17T06:16:49.083Z,51.80
2022-10-17T06:21:48.993Z,47.80
2022-10-17T06:26:48.974Z,48.50
2022-10-17T06:31:48.865Z,41.30
2022-10-17T06:36:48.830Z,42.20
2022-10-17T06:41:48.773Z,36.30
2022-10-17T06:46:48.777Z,41.40
2022-10-17T06:51:48.590Z,37.20
2022-10-17T06:56:48.526Z,38.90
2022-10-17T07:01:48.458Z,34.50
2022-10-17T07:06:48.464Z,37.50
2022-10-17T07:11:48.338Z,39.90
2022-10-17T07:16:48.273Z,36.50
2022-10-17T07:21:48.202Z,36.40
2022-10-17T07:26:48.162Z,36.60
2022-10-17T07:31:48.084Z,32.80
2022-10-17T07:36:48.018Z,35.80
2022-10-17T07:41:47.946Z,35.90
2022-10-17T07:46:47.897Z,35.40
2022-10-17T07:51:47.835Z,36.10
2022-10-17T07:56:47.760Z,33.50
2022-10-17T08:01:47.706Z,35.50
2022-10-17T08:06:48.972Z,34.20
2022-10-17T08:11:48.301Z,32.30
2022-10-17T08:16:47.501Z,34.40
2022-10-17T08:21:47.451Z,34.10
2022-10-17T08:26:49.586Z,34.00
2022-10-17T08:31:48.319Z,32.60
2022-10-17T08:36:47.264Z,33.40
2022-10-17T08:41:47.186Z,32.60
2022-10-17T08:46:47.102Z,29.50
2022-10-17T08:51:47.050Z,33.20
2022-10-17T08:56:49.244Z,31.80
2022-10-17T09:01:46.937Z,32.50
2022-10-17T09:06:46.840Z,33.40
2022-10-17T09:11:46.772Z,31.40
2022-10-17T09:16:46.732Z,31.70
2022-10-17T09:21:46.648Z,34.50
2022-10-17T09:26:46.569Z,34.70
2022-10-17T09:36:46.434Z,34.20
2022-10-17T09:41:47.433Z,35.10
2022-10-17T09:46:46.311Z,32.80
2022-10-17T09:51:46.245Z,33.00
2022-10-17T09:56:46.184Z,31.60
2022-10-17T10:01:46.085Z,29.70
2022-10-17T10:06:46.026Z,33.10
2022-10-17T10:11:45.954Z,34.00
2022-10-17T10:16:45.877Z,30.50
2022-10-17T10:21:47.119Z,31.40
2022-10-17T10:26:45.761Z,30.50
2022-10-17T10:31:45.695Z,32.00
2022-10-17T10:36:45.631Z,28.10
2022-10-17T10:41:45.560Z,28.30
2022-10-17T10:46:45.502Z,28.20
2022-10-17T10:51:45.464Z,27.50
2022-10-17T10:56:45.851Z,28.00
2022-10-17T11:01:45.302Z,28.00
2022-10-17T11:06:45.265Z,26.10
2022-10-17T11:11:45.156Z,24.60
2022-10-17T11:16:45.141Z,26.60
2022-10-17T11:21:45.118Z,24.60
2022-10-17T11:26:44.969Z,23.90
2022-10-17T11:31:44.907Z,26.50
2022-10-17T11:36:44.834Z,24.90
2022-10-17T11:41:44.774Z,23.60
2022-10-17T11:46:44.767Z,24.20
2022-10-17T11:52:01.607Z,28.70
2022-10-17T11:56:45.578Z,24.30
2022-10-17T12:01:44.568Z,23.50
2022-10-17T12:06:44.439Z,22.60
2022-10-17T12:11:44.382Z,22.20
2022-10-17T12:16:44.303Z,22.80
2022-10-17T12:21:44.234Z,22.50
2022-10-17T12:26:44.162Z,20.90
2022-10-17T12:31:44.097Z,22.70
2022-10-17T12:36:45.015Z,21.00
2022-10-17T12:41:44.056Z,24.50
2022-10-17T12:46:43.955Z,19.70
2022-10-17T12:51:44.677Z,20.70
2022-10-17T12:56:43.807Z,21.70
2022-10-17T13:01:43.737Z,20.50
2022-10-17T13:06:43.940Z,21.10
2022-10-17T13:11:43.605Z,21.50
2022-10-17T13:16:55.042Z,21.70
2022-10-17T13:21:43.468Z,22.40
2022-10-17T13:26:43.373Z,23.10
2022-10-17T13:31:43.302Z,23.90
2022-10-17T13:36:47.949Z,23.00
2022-10-17T13:41:44.179Z,25.00
2022-10-17T13:46:43.124Z,22.00
2022-10-17T13:51:43.074Z,25.00
2022-10-17T13:56:43.016Z,23.50
2022-10-17T14:01:42.919Z,24.80
2022-10-17T14:06:45.100Z,25.30
2022-10-17T14:11:43.814Z,24.00
2022-10-17T14:16:42.701Z,25.50
2022-10-17T14:21:44.685Z,25.50
2022-10-17T14:26:42.574Z,26.30
2022-10-17T14:31:42.513Z,27.50
2022-10-17T14:36:42.443Z,26.10
2022-10-17T14:41:43.796Z,23.50
2022-10-17T14:46:42.330Z,23.10
2022-10-17T14:51:56.530Z,26.40
2022-10-17T14:56:43.315Z,26.20
2022-10-17T15:01:42.104Z,25.90
2022-10-17T15:06:42.037Z,28.30
2022-10-17T15:11:41.974Z,29.00
2022-10-17T15:16:41.910Z,30.40
2022-10-17T15:21:44.807Z,28.70
2022-10-17T15:26:42.915Z,29.70
2022-10-17T15:31:41.721Z,31.30
2022-10-17T15:36:41.630Z,32.60
2022-10-17T15:41:41.617Z,30.10
2022-10-17T15:46:41.541Z,32.10
2022-10-17T15:51:41.456Z,31.20
2022-10-17T15:56:41.442Z,29.90
2022-10-17T16:01:41.302Z,32.70
2022-10-17T16:06:41.273Z,34.40
2022-10-17T16:11:41.219Z,29.70
2022-10-17T16:16:41.145Z,29.60
2022-10-17T16:21:41.063Z,32.00
2022-10-17T16:26:41.036Z,29.80
2022-10-17T16:31:41.074Z,32.70
2022-10-17T16:36:41.074Z,32.40
2022-10-17T16:41:40.857Z,31.40
2022-10-17T16:46:40.846Z,31.40
2022-10-17T16:51:40.679Z,34.50
2022-10-17T16:56:42.491Z,34.00
2022-10-17T17:01:40.574Z,34.30
2022-10-17T17:06:40.506Z,32.80
2022-10-17T17:11:40.540Z,32.60
2022-10-17T17:16:40.741Z,34.10
2022-10-17T17:21:40.233Z,30.40
2022-10-17T17:26:50.165Z,28.20
2022-10-17T17:32:02.146Z,35.40
2022-10-17T17:37:04.308Z,31.80
2022-10-17T17:41:40.020Z,41.30
2022-10-17T17:46:39.943Z,36.00
2022-10-17T17:51:39.823Z,31.70
2022-10-17T17:56:39.826Z,31.50
2022-10-17T18:01:39.845Z,33.70
2022-10-17T18:06:39.628Z,32.70
2022-10-17T18:11:39.628Z,32.80
2022-10-17T18:16:39.818Z,33.10
2022-10-17T18:21:39.428Z,31.10
2022-10-17T18:26:39.812Z,34.00
2022-10-17T18:31:39.320Z,33.50
2022-10-17T18:36:39.259Z,33.10
2022-10-17T18:41:39.168Z,38.70
2022-10-17T18:46:39.152Z,33.30
2022-10-17T18:51:39.073Z,32.50
2022-10-17T18:56:38.996Z,35.30
2022-10-17T19:01:38.897Z,32.80
2022-10-17T19:06:39.100Z,36.10
2022-10-17T19:11:38.760Z,38.50
2022-10-17T19:16:39.771Z,35.60
2022-10-17T19:21:40.014Z,33.70
2022-10-17T19:26:38.588Z,39.30
2022-10-17T19:31:38.583Z,37.30
2022-10-17T19:36:38.547Z,41.20
2022-10-17T19:41:38.344Z,45.90
2022-10-17T19:46:38.377Z,46.10
2022-10-17T19:51:38.301Z,47.00
2022-10-17T19:56:38.376Z,55.80
2022-10-17T20:01:38.201Z,50.40
2022-10-17T20:06:38.336Z,48.60
2022-10-17T20:11:38.640Z,48.30
2022-10-17T20:16:37.889Z,48.60
2022-10-17T20:21:37.809Z,50.40
2022-10-17T20:26:39.770Z,51.80
2022-10-17T20:31:37.675Z,48.30
2022-10-17T20:36:37.858Z,50.30
2022-10-17T20:41:37.568Z,52.70
2022-10-17T20:46:41.572Z,48.10
2022-10-17T20:51:38.443Z,52.80
2022-10-17T20:56:37.320Z,53.80
2022-10-17T21:01:37.307Z,53.00
2022-10-17T21:06:37.221Z,51.20
2022-10-17T21:11:37.146Z,52.80
2022-10-17T21:16:37.142Z,50.00
2022-10-17T21:21:37.046Z,53.30
2022-10-17T21:26:36.960Z,51.10
2022-10-17T21:31:36.909Z,45.30
2022-10-17T21:36:36.829Z,44.30
2022-10-17T21:41:36.734Z,43.10
2022-10-17T21:46:36.681Z,42.90
2022-10-17T21:51:36.619Z,49.50
2022-10-17T21:56:36.576Z,56.90
2022-10-17T22:01:36.522Z,53.10
2022-10-17T22:06:40.650Z,53.20
2022-10-17T22:11:36.358Z,55.30
2022-10-17T22:16:36.249Z,62.00
2022-10-17T22:21:36.253Z,55.50
2022-10-17T22:26:36.495Z,58.80
2022-10-17T22:31:36.057Z,58.80
2022-10-17T22:36:36.029Z,57.90
2022-10-17T22:41:35.989Z,55.50
2022-10-17T22:46:36.102Z,63.10
2022-10-17T22:51:35.815Z,64.50
2022-10-17T22:56:35.752Z,50.70
2022-10-17T23:01:35.769Z,61.30
2022-10-17T23:06:35.620Z,49.20
2022-10-17T23:11:35.528Z,63.00
2022-10-17T23:16:35.450Z,63.70
2022-10-17T23:21:35.456Z,62.50
2022-10-17T23:26:35.404Z,60.50
2022-10-17T23:31:35.294Z,65.00
2022-10-17T23:36:35.220Z,60.80
2022-10-17T23:41:35.132Z,56.30
2022-10-17T23:46:35.246Z,64.70
2022-10-17T23:51:35.009Z,61.30
2022-10-17T23:56:34.938Z,63.60
